createdAt,value
2019-01-09T00:01:55.443Z,1.47
2019-01-09T00:06:41.203Z,2.70
2019-01-09T00:11:27.006Z,1.53
2019-01-09T00:16:12.996Z,1.83
2019-01-09T00:20:58.786Z,1.00
2019-01-09T00:25:44.933Z,2.50
2019-01-09T00:30:30.996Z,1.87
2019-01-09T00:35:16.751Z,1.10
2019-01-09T00:40:02.883Z,3.40
2019-01-09T00:44:48.756Z,1.00
2019-01-09T00:49:34.486Z,2.47
2019-01-09T00:54:20.416Z,3.23
2019-01-09T00:59:06.413Z,1.53
2019-01-09T01:04:38.780Z,4.97
2019-01-09T01:10:11.464Z,3.17
2019-01-09T01:15:33.963Z,3.47
2019-01-09T01:21:03.541Z,1.70
2019-01-09T01:26:21.355Z,3.33
2019-01-09T01:31:27.113Z,1.67
2019-01-09T01:37:01.691Z,2.50
2019-01-09T01:42:30.259Z,3.23
2019-01-09T01:47:39.807Z,1.57
2019-01-09T01:52:52.901Z,2.27
2019-01-09T01:58:21.314Z,1.70
2019-01-09T02:04:00.107Z,0.90
2019-01-09T02:09:22.432Z,0.83
2019-01-09T02:14:46.359Z,2.73
2019-01-09T02:19:41.943Z,2.30
2019-01-09T02:25:10.305Z,1.87
2019-01-09T02:30:42.657Z,2.03
2019-01-09T02:35:28.307Z,1.37
2019-01-09T02:40:14.135Z,1.63
2019-01-09T02:44:59.874Z,0.73
2019-01-09T02:49:45.715Z,2.37
2019-01-09T02:54:31.407Z,1.20
2019-01-09T02:59:17.115Z,0.40
2019-01-09T03:04:02.813Z,1.20
2019-01-09T03:08:48.578Z,0.53
2019-01-09T03:13:34.288Z,0.70
2019-01-09T03:18:19.982Z,1.03
2019-01-09T03:23:05.677Z,0.83
2019-01-09T03:27:51.414Z,1.50
2019-01-09T03:32:37.161Z,2.63
2019-01-09T03:37:22.850Z,0.70
2019-01-09T03:42:08.635Z,1.97
2019-01-09T03:46:54.340Z,2.13
2019-01-09T03:51:42.704Z,2.53
2019-01-09T03:56:28.572Z,3.77
2019-01-09T04:01:14.303Z,1.87
2019-01-09T04:06:00.066Z,3.40
2019-01-09T04:10:45.774Z,2.77
2019-01-09T04:15:31.575Z,4.37
2019-01-09T04:20:17.370Z,1.90
2019-01-09T04:25:03.084Z,2.43
2019-01-09T04:29:48.814Z,3.90
2019-01-09T04:34:34.523Z,4.30
2019-01-09T04:39:20.243Z,2.87
2019-01-09T04:44:06.116Z,2.67
2019-01-09T04:48:52.033Z,3.57
2019-01-09T04:53:37.723Z,2.47
2019-01-09T04:58:23.417Z,2.30
2019-01-09T05:03:09.132Z,1.77
2019-01-09T05:07:54.830Z,6.03
2019-01-09T05:12:40.515Z,5.93
2019-01-09T05:17:26.310Z,3.57
2019-01-09T05:22:12.066Z,2.00
2019-01-09T05:26:57.884Z,3.40
2019-01-09T05:31:43.569Z,3.23
2019-01-09T05:36:29.437Z,3.07
2019-01-09T05:41:15.175Z,1.40
2019-01-09T05:46:00.985Z,2.20
2019-01-09T05:50:46.749Z,1.90
2019-01-09T05:55:32.500Z,0.80
2019-01-09T06:00:18.399Z,3.00
2019-01-09T06:05:04.260Z,1.90
2019-01-09T06:09:50.000Z,2.47
2019-01-09T06:14:35.741Z,1.43
2019-01-09T06:19:21.466Z,1.23
2019-01-09T06:24:07.256Z,3.33
2019-01-09T06:28:52.947Z,0.47
2019-01-09T06:33:38.922Z,1.70
2019-01-09T06:38:24.660Z,0.97
2019-01-09T06:43:10.580Z,0.67
2019-01-09T06:47:56.327Z,1.63
2019-01-09T06:52:42.066Z,0.90
2019-01-09T06:57:27.767Z,0.97
2019-01-09T07:02:14.547Z,2.10
2019-01-09T07:07:00.343Z,2.13
2019-01-09T07:11:46.599Z,1.50
2019-01-09T07:16:32.521Z,4.47
2019-01-09T07:21:18.316Z,2.30
2019-01-09T07:26:04.079Z,0.87
2019-01-09T07:30:49.820Z,0.60
2019-01-09T07:35:35.579Z,1.47
2019-01-09T07:40:21.458Z,1.03
2019-01-09T07:45:08.154Z,1.07
2019-01-09T07:49:53.905Z,3.80
2019-01-09T07:54:39.606Z,3.07
2019-01-09T07:59:25.329Z,1.73
2019-01-09T08:04:11.072Z,1.07
2019-01-09T08:09:15.828Z,1.57
2019-01-09T08:14:01.563Z,2.20
2019-01-09T08:18:48.386Z,1.37
2019-01-09T08:23:34.349Z,0.87
2019-01-09T08:28:20.128Z,2.03
2019-01-09T08:33:05.892Z,2.30
2019-01-09T08:37:51.801Z,1.90
2019-01-09T08:42:37.527Z,2.57
2019-01-09T08:47:23.349Z,3.30
2019-01-09T08:52:09.202Z,2.77
2019-01-09T08:56:55.023Z,1.37
2019-01-09T09:01:40.742Z,2.77
2019-01-09T09:06:26.606Z,2.73
2019-01-09T09:11:12.353Z,1.73
2019-01-09T09:15:58.124Z,2.43
2019-01-09T09:20:43.918Z,3.10
2019-01-09T09:25:30.277Z,2.37
2019-01-09T09:30:16.452Z,3.10
2019-01-09T09:35:02.465Z,1.27
2019-01-09T09:39:48.221Z,0.50
2019-01-09T09:44:34.019Z,1.73
2019-01-09T09:49:19.782Z,5.40
2019-01-09T09:54:05.613Z,2.63
2019-01-09T09:58:51.352Z,2.77
2019-01-09T10:03:37.120Z,2.30
2019-01-09T10:08:29.394Z,2.63
2019-01-09T10:13:10.409Z,4.57
2019-01-09T10:17:56.112Z,2.10
2019-01-09T10:22:42.002Z,3.37
2019-01-09T10:27:27.808Z,2.43
2019-01-09T10:32:13.532Z,2.93
2019-01-09T10:36:59.334Z,4.20
2019-01-09T10:41:45.032Z,3.37
2019-01-09T10:46:30.823Z,4.07
2019-01-09T10:51:16.560Z,1.87
2019-01-09T10:56:02.289Z,3.27
2019-01-09T11:00:48.332Z,3.20
2019-01-09T11:05:34.204Z,2.90
2019-01-09T11:10:20.763Z,3.93
2019-01-09T11:15:07.622Z,2.23
2019-01-09T11:19:53.296Z,1.57
2019-01-09T11:24:39.223Z,1.90
2019-01-09T11:29:25.158Z,1.33
2019-01-09T11:34:11.079Z,1.47
2019-01-09T11:38:56.822Z,3.43
2019-01-09T11:43:42.643Z,2.43
2019-01-09T11:48:28.385Z,3.07
2019-01-09T11:53:14.174Z,1.53
2019-01-09T11:57:59.869Z,2.60
2019-01-09T12:02:45.813Z,4.63
2019-01-09T12:07:31.755Z,1.83
2019-01-09T12:12:17.772Z,2.20
2019-01-09T12:17:03.823Z,6.40
2019-01-09T12:21:49.622Z,3.03
2019-01-09T12:26:35.631Z,2.77
2019-01-09T12:31:21.397Z,4.80
2019-01-09T12:36:07.347Z,2.60
2019-01-09T12:40:53.125Z,2.00
2019-01-09T12:45:39.104Z,3.40
2019-01-09T12:50:26.409Z,4.80
2019-01-09T12:55:15.591Z,2.40
2019-01-09T13:00:01.674Z,3.67
2019-01-09T13:04:47.434Z,4.43
2019-01-09T13:09:33.349Z,3.47
2019-01-09T13:14:19.194Z,3.80
2019-01-09T13:19:05.160Z,3.97
2019-01-09T13:23:50.957Z,2.57
2019-01-09T13:28:36.797Z,5.33
2019-01-09T13:33:22.632Z,5.00
2019-01-09T13:38:08.678Z,4.10
2019-01-09T13:42:54.431Z,2.23
2019-01-09T13:47:40.501Z,9.73
2019-01-09T13:52:26.652Z,5.50
2019-01-09T13:57:12.477Z,4.60
2019-01-09T14:01:58.378Z,3.93
2019-01-09T14:06:44.332Z,7.10
2019-01-09T14:11:30.213Z,1.93
2019-01-09T14:16:16.161Z,5.30
2019-01-09T14:21:02.062Z,5.57
2019-01-09T14:25:47.984Z,4.80
2019-01-09T14:30:34.005Z,2.47
2019-01-09T14:35:19.991Z,10.40
2019-01-09T14:40:06.729Z,7.33
2019-01-09T14:44:52.520Z,6.20
2019-01-09T14:49:38.319Z,3.90
2019-01-09T14:54:24.290Z,5.30
2019-01-09T14:59:10.136Z,5.63
2019-01-09T15:03:56.208Z,7.33
2019-01-09T15:08:42.209Z,5.10
2019-01-09T15:13:27.929Z,2.73
2019-01-09T15:18:13.858Z,6.23
2019-01-09T15:22:59.648Z,3.67
2019-01-09T15:27:45.595Z,4.13
2019-01-09T15:32:31.385Z,6.77
2019-01-09T15:37:17.276Z,7.07
2019-01-09T15:42:03.067Z,9.30
2019-01-09T15:46:49.084Z,5.10
2019-01-09T15:51:34.984Z,5.60
2019-01-09T15:56:20.930Z,3.70
2019-01-09T16:01:06.858Z,5.47
2019-01-09T16:05:52.838Z,5.07
2019-01-09T16:10:39.253Z,4.90
2019-01-09T16:15:25.393Z,11.20
2019-01-09T16:20:16.953Z,6.00
2019-01-09T16:24:59.964Z,6.70
2019-01-09T16:29:45.994Z,8.43
2019-01-09T16:34:31.723Z,4.70
2019-01-09T16:39:17.655Z,7.00
2019-01-09T16:44:03.457Z,8.50
2019-01-09T16:48:49.273Z,5.03
2019-01-09T16:53:34.988Z,6.73
2019-01-09T16:58:20.919Z,5.17
2019-01-09T17:03:06.907Z,5.40
2019-01-09T17:07:53.475Z,6.53
2019-01-09T17:12:39.366Z,11.63
2019-01-09T17:17:25.362Z,7.87
2019-01-09T17:22:11.259Z,4.90
2019-01-09T17:26:57.538Z,10.17
2019-01-09T17:31:43.498Z,8.83
2019-01-09T17:36:29.358Z,7.60
2019-01-09T17:41:15.387Z,6.90
2019-01-09T17:46:01.288Z,8.03
2019-01-09T17:50:47.254Z,12.07
2019-01-09T17:55:33.107Z,11.03
2019-01-09T18:00:21.820Z,10.03
2019-01-09T18:05:08.237Z,8.67
2019-01-09T18:09:54.219Z,12.83
2019-01-09T18:14:58.945Z,12.10
2019-01-09T18:19:45.159Z,10.33
2019-01-09T18:24:31.067Z,12.00
2019-01-09T18:29:17.117Z,8.73
2019-01-09T18:34:27.049Z,7.13
2019-01-09T18:39:53.638Z,7.07
2019-01-09T18:44:54.973Z,14.33
2019-01-09T18:50:04.808Z,14.87
2019-01-09T18:54:50.806Z,11.50
2019-01-09T18:59:36.891Z,11.70
2019-01-09T19:04:22.728Z,16.40
2019-01-09T19:09:11.098Z,10.03
2019-01-09T19:13:59.276Z,10.33
2019-01-09T19:18:49.778Z,9.40
2019-01-09T19:23:38.851Z,10.80
2019-01-09T19:28:28.324Z,10.17
2019-01-09T19:33:16.220Z,11.10
2019-01-09T19:38:02.436Z,9.43
2019-01-09T19:42:48.604Z,10.47
2019-01-09T19:47:34.878Z,7.00
2019-01-09T19:52:21.079Z,11.97
2019-01-09T19:57:07.055Z,9.23
2019-01-09T20:01:53.550Z,11.17
2019-01-09T20:06:40.061Z,8.70
2019-01-09T20:11:26.864Z,11.07
2019-01-09T20:16:13.544Z,21.60
2019-01-09T20:20:59.706Z,12.70
2019-01-09T20:25:46.199Z,10.43
2019-01-09T20:30:32.539Z,12.97
2019-01-09T20:35:18.795Z,15.00
2019-01-09T20:40:05.868Z,11.63
2019-01-09T20:44:52.073Z,18.40
2019-01-09T20:49:38.341Z,11.93
2019-01-09T20:54:24.764Z,11.30
2019-01-09T20:59:11.058Z,12.00
2019-01-09T21:03:57.315Z,13.00
2019-01-09T21:08:43.489Z,11.37
2019-01-09T21:13:29.824Z,16.90
2019-01-09T21:18:15.832Z,14.17
2019-01-09T21:23:01.705Z,16.03
2019-01-09T21:27:48.050Z,17.50
2019-01-09T21:32:34.226Z,14.90
2019-01-09T21:37:20.136Z,20.30
2019-01-09T21:42:06.330Z,20.37
2019-01-09T21:46:52.352Z,12.97
2019-01-09T21:51:38.418Z,15.73
2019-01-09T21:56:24.228Z,18.43
2019-01-09T22:01:10.126Z,14.10
2019-01-09T22:05:55.897Z,15.80
2019-01-09T22:10:41.904Z,16.03
2019-01-09T22:15:27.984Z,22.73
2019-01-09T22:20:14.077Z,13.20
2019-01-09T22:24:59.930Z,12.87
2019-01-09T22:29:45.987Z,8.90
2019-01-09T22:34:31.901Z,11.80
2019-01-09T22:39:18.936Z,9.80
2019-01-09T22:44:05.522Z,9.63
2019-01-09T22:48:51.549Z,16.77
2019-01-09T22:53:37.507Z,14.10
2019-01-09T22:58:23.299Z,9.87
2019-01-09T23:03:10.288Z,5.97
2019-01-09T23:07:56.150Z,6.00
2019-01-09T23:12:42.090Z,6.17
2019-01-09T23:17:27.993Z,8.60
2019-01-09T23:22:14.099Z,9.73
2019-01-09T23:27:00.013Z,8.03
2019-01-09T23:31:46.018Z,10.10
2019-01-09T23:36:32.235Z,14.13
2019-01-09T23:41:18.018Z,12.60
2019-01-09T23:46:04.471Z,12.50
2019-01-09T23:50:50.239Z,20.37
2019-01-09T23:55:36.095Z,16.67
